sensor_id;sensor_type;location;lat;lon;timestamp;temperature;humidity
19941;DHT22;10132;50.864;5.176;2023-01-29T00:00:42;-3.00;99.90
19941;DHT22;10132;50.864;5.176;2023-01-29T00:02:44;-2.80;99.90
19941;DHT22;10132;50.864;5.176;2023-01-29T00:04:46;-2.70;99.90
19941;DHT22;10132;50.864;5.176;2023-01-29T00:06:48;-2.70;99.90
19941;DHT22;10132;50.864;5.176;2023-01-29T00:08:50;-2.70;99.90
19941;DHT22;10132;50.864;5.176;2023-01-29T00:10:52;-2.60;99.90
19941;DHT22;10132;50.864;5.176;2023-01-29T00:12:54;-2.60;99.90
19941;DHT22;10132;50.864;5.176;2023-01-29T00:14:57;-2.70;99.90
19941;DHT22;10132;50.864;5.176;2023-01-29T00:16:59;-2.80;99.90
19941;DHT22;10132;50.864;5.176;2023-01-29T00:19:02;-2.70;99.90
19941;DHT22;10132;50.864;5.176;2023-01-29T00:21:08;-2.70;99.90
19941;DHT22;10132;50.864;5.176;2023-01-29T00:23:09;-2.70;99.90
19941;DHT22;10132;50.864;5.176;2023-01-29T00:25:11;-2.70;99.90
19941;DHT22;10132;50.864;5.176;2023-01-29T00:27:13;-2.50;99.90
19941;DHT22;10132;50.864;5.176;2023-01-29T00:29:15;-2.70;99.90
19941;DHT22;10132;50.864;5.176;2023-01-29T00:31:20;-2.80;99.90
19941;DHT22;10132;50.864;5.176;2023-01-29T00:33:23;-2.90;99.90
19941;DHT22;10132;50.864;5.176;2023-01-29T00:35:25;-2.80;99.90
19941;DHT22;10132;50.864;5.176;2023-01-29T00:37:27;-2.80;99.90
19941;DHT22;10132;50.864;5.176;2023-01-29T00:39:29;-2.70;99.90
19941;DHT22;10132;50.864;5.176;2023-01-29T00:41:38;-2.70;99.90
19941;DHT22;10132;50.864;5.176;2023-01-29T00:43:57;-2.90;99.90
19941;DHT22;10132;50.864;5.176;2023-01-29T00:46:18;-2.90;99.90
19941;DHT22;10132;50.864;5.176;2023-01-29T00:48:20;-2.90;99.90
19941;DHT22;10132;50.864;5.176;2023-01-29T00:50:22;-2.90;99.90
19941;DHT22;10132;50.864;5.176;2023-01-29T00:52:24;-2.90;99.90
19941;DHT22;10132;50.864;5.176;2023-01-29T00:54:26;-2.80;99.90
19941;DHT22;10132;50.864;5.176;2023-01-29T00:56:28;-2.60;99.90
19941;DHT22;10132;50.864;5.176;2023-01-29T00:58:30;-2.50;99.90
19941;DHT22;10132;50.864;5.176;2023-01-29T01:00:34;-2.50;99.90
19941;DHT22;10132;50.864;5.176;2023-01-29T01:02:38;-2.50;99.90
19941;DHT22;10132;50.864;5.176;2023-01-29T01:04:57;-2.50;99.90
19941;DHT22;10132;50.864;5.176;2023-01-29T01:07:02;-2.50;99.90
19941;DHT22;10132;50.864;5.176;2023-01-29T01:09:04;-2.50;99.90
19941;DHT22;10132;50.864;5.176;2023-01-29T01:11:24;-2.50;99.90
19941;DHT22;10132;50.864;5.176;2023-01-29T01:13:26;-2.50;99.90
19941;DHT22;10132;50.864;5.176;2023-01-29T01:15:30;-2.70;99.90
19941;DHT22;10132;50.864;5.176;2023-01-29T01:17:32;-2.70;99.90
19941;DHT22;10132;50.864;5.176;2023-01-29T01:19:36;-2.70;99.90
19941;DHT22;10132;50.864;5.176;2023-01-29T01:21:38;-2.70;99.90
19941;DHT22;10132;50.864;5.176;2023-01-29T01:23:40;-2.80;99.90
19941;DHT22;10132;50.864;5.176;2023-01-29T01:25:42;-2.80;99.90
19941;DHT22;10132;50.864;5.176;2023-01-29T01:27:44;-2.80;99.90
19941;DHT22;10132;50.864;5.176;2023-01-29T01:29:46;-2.80;99.90
19941;DHT22;10132;50.864;5.176;2023-01-29T01:31:48;-3.00;99.90
19941;DHT22;10132;50.864;5.176;2023-01-29T01:33:50;-3.30;99.90
19941;DHT22;10132;50.864;5.176;2023-01-29T01:35:55;-3.20;99.90
19941;DHT22;10132;50.864;5.176;2023-01-29T01:38:01;-3.10;99.90
19941;DHT22;10132;50.864;5.176;2023-01-29T01:40:04;-3.00;99.90
19941;DHT22;10132;50.864;5.176;2023-01-29T01:42:12;-2.90;99.90
19941;DHT22;10132;50.864;5.176;2023-01-29T01:44:52;-3.00;99.90
19941;DHT22;10132;50.864;5.176;2023-01-29T01:46:55;-3.00;99.90
19941;DHT22;10132;50.864;5.176;2023-01-29T01:49:01;-3.10;99.90
19941;DHT22;10132;50.864;5.176;2023-01-29T01:51:05;-3.00;99.90
19941;DHT22;10132;50.864;5.176;2023-01-29T01:53:09;-2.90;99.90
19941;DHT22;10132;50.864;5.176;2023-01-29T01:55:13;-2.90;99.90
19941;DHT22;10132;50.864;5.176;2023-01-29T01:57:20;-2.80;99.90
19941;DHT22;10132;50.864;5.176;2023-01-29T01:59:25;-2.80;99.90
19941;DHT22;10132;50.864;5.176;2023-01-29T02:01:27;-2.90;99.90
19941;DHT22;10132;50.864;5.176;2023-01-29T02:03:30;-3.00;99.90
19941;DHT22;10132;50.864;5.176;2023-01-29T02:05:53;-3.00;99.90
19941;DHT22;10132;50.864;5.176;2023-01-29T02:08:17;-3.10;99.90
19941;DHT22;10132;50.864;5.176;2023-01-29T02:10:42;-3.00;99.90
19941;DHT22;10132;50.864;5.176;2023-01-29T02:12:45;-3.00;99.90
19941;DHT22;10132;50.864;5.176;2023-01-29T02:14:47;-3.00;99.90
19941;DHT22;10132;50.864;5.176;2023-01-29T02:16:50;-3.00;99.90
19941;DHT22;10132;50.864;5.176;2023-01-29T02:18:52;-2.90;99.90
19941;DHT22;10132;50.864;5.176;2023-01-29T02:21:14;-3.00;99.90
19941;DHT22;10132;50.864;5.176;2023-01-29T02:23:47;-3.10;99.90
19941;DHT22;10132;50.864;5.176;2023-01-29T02:26:03;-3.00;99.90
19941;DHT22;10132;50.864;5.176;2023-01-29T02:28:27;-2.90;99.90
19941;DHT22;10132;50.864;5.176;2023-01-29T02:30:36;-2.90;99.90
19941;DHT22;10132;50.864;5.176;2023-01-29T02:32:41;-3.00;99.90
19941;DHT22;10132;50.864;5.176;2023-01-29T02:35:04;-3.00;99.90
19941;DHT22;10132;50.864;5.176;2023-01-29T02:37:30;-3.10;99.90
19941;DHT22;10132;50.864;5.176;2023-01-29T02:39:39;-3.30;99.90
19941;DHT22;10132;50.864;5.176;2023-01-29T02:41:50;-3.20;99.90
19941;DHT22;10132;50.864;5.176;2023-01-29T02:44:02;-3.10;99.90
19941;DHT22;10132;50.864;5.176;2023-01-29T02:46:12;-3.10;99.90
19941;DHT22;10132;50.864;5.176;2023-01-29T02:48:18;-3.20;99.90
19941;DHT22;10132;50.864;5.176;2023-01-29T02:50:28;-3.10;99.90
19941;DHT22;10132;50.864;5.176;2023-01-29T02:52:36;-3.10;99.90
19941;DHT22;10132;50.864;5.176;2023-01-29T02:54:45;-3.20;99.90
19941;DHT22;10132;50.864;5.176;2023-01-29T02:56:53;-3.20;99.90
19941;DHT22;10132;50.864;5.176;2023-01-29T02:58:59;-3.10;99.90
19941;DHT22;10132;50.864;5.176;2023-01-29T03:01:08;-3.00;99.90
19941;DHT22;10132;50.864;5.176;2023-01-29T03:03:15;-3.20;99.90
19941;DHT22;10132;50.864;5.176;2023-01-29T03:05:24;-3.40;99.90
19941;DHT22;10132;50.864;5.176;2023-01-29T03:07:31;-3.40;99.90
19941;DHT22;10132;50.864;5.176;2023-01-29T03:09:48;-3.40;99.90
19941;DHT22;10132;50.864;5.176;2023-01-29T03:11:57;-3.50;99.90
19941;DHT22;10132;50.864;5.176;2023-01-29T03:14:03;-3.60;99.90
19941;DHT22;10132;50.864;5.176;2023-01-29T03:16:13;-3.60;99.90
19941;DHT22;10132;50.864;5.176;2023-01-29T03:18:21;-3.40;99.90
19941;DHT22;10132;50.864;5.176;2023-01-29T03:20:31;-3.20;99.90
19941;DHT22;10132;50.864;5.176;2023-01-29T03:22:36;-3.10;99.90
19941;DHT22;10132;50.864;5.176;2023-01-29T03:24:40;-3.00;99.90
19941;DHT22;10132;50.864;5.176;2023-01-29T03:27:04;-3.00;99.90
19941;DHT22;10132;50.864;5.176;2023-01-29T03:29:28;-3.00;99.90
19941;DHT22;10132;50.864;5.176;2023-01-29T03:31:49;-2.90;99.90
19941;DHT22;10132;50.864;5.176;2023-01-29T03:34:08;-3.00;99.90
19941;DHT22;10132;50.864;5.176;2023-01-29T03:36:18;-3.00;99.90
19941;DHT22;10132;50.864;5.176;2023-01-29T03:38:21;-3.10;99.90
19941;DHT22;10132;50.864;5.176;2023-01-29T03:40:36;-3.20;99.90
19941;DHT22;10132;50.864;5.176;2023-01-29T03:42:48;-3.20;99.90
19941;DHT22;10132;50.864;5.176;2023-01-29T03:44:59;-3.20;99.90
19941;DHT22;10132;50.864;5.176;2023-01-29T03:47:13;-3.20;99.90
19941;DHT22;10132;50.864;5.176;2023-01-29T03:49:22;-3.10;99.90
19941;DHT22;10132;50.864;5.176;2023-01-29T03:51:31;-3.00;99.90
19941;DHT22;10132;50.864;5.176;2023-01-29T03:53:40;-3.10;99.90
19941;DHT22;10132;50.864;5.176;2023-01-29T03:55:48;-3.30;99.90
19941;DHT22;10132;50.864;5.176;2023-01-29T03:57:57;-3.10;99.90
19941;DHT22;10132;50.864;5.176;2023-01-29T04:00:05;-3.00;99.90
19941;DHT22;10132;50.864;5.176;2023-01-29T04:02:12;-2.90;99.90
19941;DHT22;10132;50.864;5.176;2023-01-29T04:04:22;-2.80;99.90
19941;DHT22;10132;50.864;5.176;2023-01-29T04:06:28;-2.70;99.90
19941;DHT22;10132;50.864;5.176;2023-01-29T04:08:34;-2.60;99.90
19941;DHT22;10132;50.864;5.176;2023-01-29T04:10:40;-2.60;99.90
19941;DHT22;10132;50.864;5.176;2023-01-29T04:12:45;-2.70;99.90
19941;DHT22;10132;50.864;5.176;2023-01-29T04:14:49;-2.70;99.90
19941;DHT22;10132;50.864;5.176;2023-01-29T04:16:56;-2.80;99.90
19941;DHT22;10132;50.864;5.176;2023-01-29T04:19:01;-2.60;99.90
19941;DHT22;10132;50.864;5.176;2023-01-29T04:21:03;-2.70;99.90
19941;DHT22;10132;50.864;5.176;2023-01-29T04:23:16;-2.80;99.90
19941;DHT22;10132;50.864;5.176;2023-01-29T04:25:22;-2.80;99.90
19941;DHT22;10132;50.864;5.176;2023-01-29T04:27:34;-2.80;99.90
19941;DHT22;10132;50.864;5.176;2023-01-29T04:29:47;-3.00;99.90
19941;DHT22;10132;50.864;5.176;2023-01-29T04:31:57;-3.00;99.90
19941;DHT22;10132;50.864;5.176;2023-01-29T04:34:08;-2.90;99.90
19941;DHT22;10132;50.864;5.176;2023-01-29T04:36:24;-3.00;99.90
19941;DHT22;10132;50.864;5.176;2023-01-29T04:38:36;-2.90;99.90
19941;DHT22;10132;50.864;5.176;2023-01-29T04:40:48;-2.90;99.90
19941;DHT22;10132;50.864;5.176;2023-01-29T04:43:02;-2.90;99.90
19941;DHT22;10132;50.864;5.176;2023-01-29T04:45:11;-2.90;99.90
19941;DHT22;10132;50.864;5.176;2023-01-29T04:47:25;-2.80;99.90
19941;DHT22;10132;50.864;5.176;2023-01-29T04:49:34;-2.80;99.90
19941;DHT22;10132;50.864;5.176;2023-01-29T04:51:44;-2.80;99.90
19941;DHT22;10132;50.864;5.176;2023-01-29T04:53:52;-2.70;99.90
19941;DHT22;10132;50.864;5.176;2023-01-29T04:56:02;-2.80;99.90
19941;DHT22;10132;50.864;5.176;2023-01-29T04:58:11;-3.00;99.90
19941;DHT22;10132;50.864;5.176;2023-01-29T05:00:18;-3.30;99.90
19941;DHT22;10132;50.864;5.176;2023-01-29T05:02:23;-3.40;99.90
19941;DHT22;10132;50.864;5.176;2023-01-29T05:04:29;-3.40;99.90
19941;DHT22;10132;50.864;5.176;2023-01-29T05:06:34;-3.50;99.90
19941;DHT22;10132;50.864;5.176;2023-01-29T05:08:37;-3.40;99.90
19941;DHT22;10132;50.864;5.176;2023-01-29T05:10:39;-3.30;99.90
19941;DHT22;10132;50.864;5.176;2023-01-29T05:12:44;-3.30;99.90
19941;DHT22;10132;50.864;5.176;2023-01-29T05:14:48;-3.20;99.90
19941;DHT22;10132;50.864;5.176;2023-01-29T05:16:52;-3.20;99.90
19941;DHT22;10132;50.864;5.176;2023-01-29T05:18:56;-3.30;99.90
19941;DHT22;10132;50.864;5.176;2023-01-29T05:21:01;-3.30;99.90
19941;DHT22;10132;50.864;5.176;2023-01-29T05:23:08;-3.40;99.90
19941;DHT22;10132;50.864;5.176;2023-01-29T05:25:21;-3.30;99.90
19941;DHT22;10132;50.864;5.176;2023-01-29T05:27:28;-3.00;99.90
19941;DHT22;10132;50.864;5.176;2023-01-29T05:29:47;-2.90;99.90
19941;DHT22;10132;50.864;5.176;2023-01-29T05:31:49;-3.10;99.90
19941;DHT22;10132;50.864;5.176;2023-01-29T05:33:51;-3.10;99.90
19941;DHT22;10132;50.864;5.176;2023-01-29T05:35:58;-3.00;99.90
19941;DHT22;10132;50.864;5.176;2023-01-29T05:38:00;-2.90;99.90
19941;DHT22;10132;50.864;5.176;2023-01-29T05:40:03;-2.80;99.90
19941;DHT22;10132;50.864;5.176;2023-01-29T05:42:08;-2.80;99.90
19941;DHT22;10132;50.864;5.176;2023-01-29T05:44:10;-2.80;99.90
19941;DHT22;10132;50.864;5.176;2023-01-29T05:46:12;-2.70;99.90
19941;DHT22;10132;50.864;5.176;2023-01-29T05:48:14;-2.60;99.90
19941;DHT22;10132;50.864;5.176;2023-01-29T05:50:16;-2.50;99.90
19941;DHT22;10132;50.864;5.176;2023-01-29T05:52:19;-2.50;99.90
19941;DHT22;10132;50.864;5.176;2023-01-29T05:54:21;-2.50;99.90
19941;DHT22;10132;50.864;5.176;2023-01-29T05:56:23;-2.50;99.90
19941;DHT22;10132;50.864;5.176;2023-01-29T05:58:26;-2.50;99.90
19941;DHT22;10132;50.864;5.176;2023-01-29T06:00:28;-2.50;99.90
19941;DHT22;10132;50.864;5.176;2023-01-29T06:02:30;-2.50;99.90
19941;DHT22;10132;50.864;5.176;2023-01-29T06:04:32;-2.50;99.90
19941;DHT22;10132;50.864;5.176;2023-01-29T06:06:34;-2.50;99.90
19941;DHT22;10132;50.864;5.176;2023-01-29T06:08:37;-2.40;99.90
19941;DHT22;10132;50.864;5.176;2023-01-29T06:10:39;-2.20;99.90
19941;DHT22;10132;50.864;5.176;2023-01-29T06:12:42;-2.10;99.90
19941;DHT22;10132;50.864;5.176;2023-01-29T06:14:44;-2.00;99.90
19941;DHT22;10132;50.864;5.176;2023-01-29T06:16:46;-2.00;99.90
19941;DHT22;10132;50.864;5.176;2023-01-29T06:18:48;-1.90;99.90
19941;DHT22;10132;50.864;5.176;2023-01-29T06:20:50;-1.80;99.90
19941;DHT22;10132;50.864;5.176;2023-01-29T06:22:52;-1.70;99.90
19941;DHT22;10132;50.864;5.176;2023-01-29T06:24:55;-1.70;99.90
19941;DHT22;10132;50.864;5.176;2023-01-29T06:26:57;-1.90;99.90
19941;DHT22;10132;50.864;5.176;2023-01-29T06:28:59;-1.90;99.90
19941;DHT22;10132;50.864;5.176;2023-01-29T06:31:03;-1.90;99.90
19941;DHT22;10132;50.864;5.176;2023-01-29T06:33:05;-1.90;99.90
19941;DHT22;10132;50.864;5.176;2023-01-29T06:35:08;-1.70;99.90
19941;DHT22;10132;50.864;5.176;2023-01-29T06:37:10;-1.50;99.90
19941;DHT22;10132;50.864;5.176;2023-01-29T06:39:12;-1.50;99.90
19941;DHT22;10132;50.864;5.176;2023-01-29T06:41:17;-1.40;99.90
19941;DHT22;10132;50.864;5.176;2023-01-29T06:43:20;-1.40;99.90
19941;DHT22;10132;50.864;5.176;2023-01-29T06:45:22;-1.30;99.90
19941;DHT22;10132;50.864;5.176;2023-01-29T06:47:26;-1.40;99.90
19941;DHT22;10132;50.864;5.176;2023-01-29T06:49:28;-1.30;99.90
19941;DHT22;10132;50.864;5.176;2023-01-29T06:51:30;-1.20;99.90
19941;DHT22;10132;50.864;5.176;2023-01-29T06:53:33;-1.20;99.90
19941;DHT22;10132;50.864;5.176;2023-01-29T06:55:35;-1.20;99.90
19941;DHT22;10132;50.864;5.176;2023-01-29T06:57:38;-1.10;99.90
19941;DHT22;10132;50.864;5.176;2023-01-29T06:59:40;-1.00;99.90
19941;DHT22;10132;50.864;5.176;2023-01-29T07:01:42;-0.90;99.90
19941;DHT22;10132;50.864;5.176;2023-01-29T07:03:48;-0.90;99.90
19941;DHT22;10132;50.864;5.176;2023-01-29T07:05:50;-0.80;99.90
19941;DHT22;10132;50.864;5.176;2023-01-29T07:07:52;-0.80;99.90
19941;DHT22;10132;50.864;5.176;2023-01-29T07:09:54;-0.70;99.90
19941;DHT22;10132;50.864;5.176;2023-01-29T07:11:56;-0.70;99.90
19941;DHT22;10132;50.864;5.176;2023-01-29T07:14:00;-0.70;99.90
19941;DHT22;10132;50.864;5.176;2023-01-29T07:16:03;-0.60;99.90
19941;DHT22;10132;50.864;5.176;2023-01-29T07:18:05;-0.60;99.90
19941;DHT22;10132;50.864;5.176;2023-01-29T07:20:12;-0.60;99.90
19941;DHT22;10132;50.864;5.176;2023-01-29T07:22:14;-0.70;99.90
19941;DHT22;10132;50.864;5.176;2023-01-29T07:24:16;-0.70;99.90
19941;DHT22;10132;50.864;5.176;2023-01-29T07:26:18;-0.70;99.90
19941;DHT22;10132;50.864;5.176;2023-01-29T07:28:20;-0.70;99.90
19941;DHT22;10132;50.864;5.176;2023-01-29T07:30:23;-0.60;99.90
19941;DHT22;10132;50.864;5.176;2023-01-29T07:32:27;-0.60;99.90
19941;DHT22;10132;50.864;5.176;2023-01-29T07:34:29;-0.60;99.90
19941;DHT22;10132;50.864;5.176;2023-01-29T07:36:31;-0.50;99.90
19941;DHT22;10132;50.864;5.176;2023-01-29T07:38:33;-0.40;99.90
19941;DHT22;10132;50.864;5.176;2023-01-29T07:40:36;-0.40;99.90
19941;DHT22;10132;50.864;5.176;2023-01-29T07:42:38;-0.40;99.90
19941;DHT22;10132;50.864;5.176;2023-01-29T07:44:41;-0.30;99.90
19941;DHT22;10132;50.864;5.176;2023-01-29T07:46:45;-0.30;99.90
19941;DHT22;10132;50.864;5.176;2023-01-29T07:48:47;-0.20;99.90
19941;DHT22;10132;50.864;5.176;2023-01-29T07:50:54;-0.20;99.90
19941;DHT22;10132;50.864;5.176;2023-01-29T07:52:56;-0.10;99.90
19941;DHT22;10132;50.864;5.176;2023-01-29T07:54:58;-0.10;99.90
19941;DHT22;10132;50.864;5.176;2023-01-29T07:57:00;0.00;99.90
19941;DHT22;10132;50.864;5.176;2023-01-29T07:59:02;-0.10;99.90
19941;DHT22;10132;50.864;5.176;2023-01-29T08:01:05;-0.10;99.90
19941;DHT22;10132;50.864;5.176;2023-01-29T08:03:11;-0.10;99.90
19941;DHT22;10132;50.864;5.176;2023-01-29T08:05:14;0.00;99.90
19941;DHT22;10132;50.864;5.176;2023-01-29T08:07:16;0.00;99.90
19941;DHT22;10132;50.864;5.176;2023-01-29T08:09:17;0.00;99.90
19941;DHT22;10132;50.864;5.176;2023-01-29T08:11:19;0.10;99.90
19941;DHT22;10132;50.864;5.176;2023-01-29T08:13:21;0.10;99.90
19941;DHT22;10132;50.864;5.176;2023-01-29T08:15:24;0.20;99.90
19941;DHT22;10132;50.864;5.176;2023-01-29T08:17:26;0.10;99.90
19941;DHT22;10132;50.864;5.176;2023-01-29T08:19:29;0.00;99.90
19941;DHT22;10132;50.864;5.176;2023-01-29T08:21:31;0.10;99.90
19941;DHT22;10132;50.864;5.176;2023-01-29T08:23:33;0.10;99.90
19941;DHT22;10132;50.864;5.176;2023-01-29T08:25:35;0.20;99.90
19941;DHT22;10132;50.864;5.176;2023-01-29T08:27:37;0.20;99.90
19941;DHT22;10132;50.864;5.176;2023-01-29T08:29:39;0.20;99.90
19941;DHT22;10132;50.864;5.176;2023-01-29T08:31:41;0.20;99.90
19941;DHT22;10132;50.864;5.176;2023-01-29T08:33:43;0.20;99.90
19941;DHT22;10132;50.864;5.176;2023-01-29T08:35:49;0.30;99.90
19941;DHT22;10132;50.864;5.176;2023-01-29T08:37:52;0.20;99.90
19941;DHT22;10132;50.864;5.176;2023-01-29T08:39:55;0.20;99.90
19941;DHT22;10132;50.864;5.176;2023-01-29T08:41:57;0.30;99.90
19941;DHT22;10132;50.864;5.176;2023-01-29T08:43:59;0.30;99.90
19941;DHT22;10132;50.864;5.176;2023-01-29T08:46:03;0.30;99.90
19941;DHT22;10132;50.864;5.176;2023-01-29T08:48:05;0.10;99.90
19941;DHT22;10132;50.864;5.176;2023-01-29T08:50:08;0.20;99.90
19941;DHT22;10132;50.864;5.176;2023-01-29T08:52:12;0.20;99.90
19941;DHT22;10132;50.864;5.176;2023-01-29T08:54:14;0.30;99.90
19941;DHT22;10132;50.864;5.176;2023-01-29T08:56:16;0.30;99.90
19941;DHT22;10132;50.864;5.176;2023-01-29T08:58:18;0.40;99.90
19941;DHT22;10132;50.864;5.176;2023-01-29T09:00:21;0.60;99.90
19941;DHT22;10132;50.864;5.176;2023-01-29T09:02:23;0.70;99.90
19941;DHT22;10132;50.864;5.176;2023-01-29T09:04:25;0.80;99.90
19941;DHT22;10132;50.864;5.176;2023-01-29T09:06:26;0.80;99.90
19941;DHT22;10132;50.864;5.176;2023-01-29T09:08:30;0.80;99.90
19941;DHT22;10132;50.864;5.176;2023-01-29T09:10:32;0.90;99.90
19941;DHT22;10132;50.864;5.176;2023-01-29T09:12:34;0.90;99.90
19941;DHT22;10132;50.864;5.176;2023-01-29T09:14:36;0.90;99.90
19941;DHT22;10132;50.864;5.176;2023-01-29T09:16:38;0.90;99.90
19941;DHT22;10132;50.864;5.176;2023-01-29T09:18:40;1.00;99.90
19941;DHT22;10132;50.864;5.176;2023-01-29T09:20:42;0.90;99.90
19941;DHT22;10132;50.864;5.176;2023-01-29T09:22:44;1.00;99.90
19941;DHT22;10132;50.864;5.176;2023-01-29T09:24:47;0.90;99.90
19941;DHT22;10132;50.864;5.176;2023-01-29T09:26:49;1.00;99.90
19941;DHT22;10132;50.864;5.176;2023-01-29T09:28:51;1.00;99.90
19941;DHT22;10132;50.864;5.176;2023-01-29T09:30:53;1.10;99.90
19941;DHT22;10132;50.864;5.176;2023-01-29T09:32:55;1.10;99.90
19941;DHT22;10132;50.864;5.176;2023-01-29T09:34:57;1.10;99.90
19941;DHT22;10132;50.864;5.176;2023-01-29T09:36:59;1.00;99.90
19941;DHT22;10132;50.864;5.176;2023-01-29T09:39:01;1.00;99.90
19941;DHT22;10132;50.864;5.176;2023-01-29T09:41:17;0.90;99.90
19941;DHT22;10132;50.864;5.176;2023-01-29T09:43:28;0.90;99.90
19941;DHT22;10132;50.864;5.176;2023-01-29T09:45:35;1.10;99.90
19941;DHT22;10132;50.864;5.176;2023-01-29T09:47:40;1.00;99.90
19941;DHT22;10132;50.864;5.176;2023-01-29T09:49:46;1.00;99.90
19941;DHT22;10132;50.864;5.176;2023-01-29T09:51:52;1.00;99.90
19941;DHT22;10132;50.864;5.176;2023-01-29T09:54:05;1.00;99.90
19941;DHT22;10132;50.864;5.176;2023-01-29T09:56:13;0.90;99.90
19941;DHT22;10132;50.864;5.176;2023-01-29T09:58:20;1.00;99.90
19941;DHT22;10132;50.864;5.176;2023-01-29T10:00:28;1.00;99.90
19941;DHT22;10132;50.864;5.176;2023-01-29T10:03:05;1.10;99.90
19941;DHT22;10132;50.864;5.176;2023-01-29T10:05:28;1.20;99.90
19941;DHT22;10132;50.864;5.176;2023-01-29T10:07:54;1.20;99.90
19941;DHT22;10132;50.864;5.176;2023-01-29T10:10:15;1.00;99.90
19941;DHT22;10132;50.864;5.176;2023-01-29T10:12:34;1.00;99.90
19941;DHT22;10132;50.864;5.176;2023-01-29T10:14:43;1.10;99.90
19941;DHT22;10132;50.864;5.176;2023-01-29T10:16:56;1.00;99.90
19941;DHT22;10132;50.864;5.176;2023-01-29T10:19:14;1.00;99.90
19941;DHT22;10132;50.864;5.176;2023-01-29T10:21:38;1.20;99.90
19941;DHT22;10132;50.864;5.176;2023-01-29T10:23:47;1.30;99.90
19941;DHT22;10132;50.864;5.176;2023-01-29T10:25:51;1.30;99.90
19941;DHT22;10132;50.864;5.176;2023-01-29T10:27:57;1.00;99.90
19941;DHT22;10132;50.864;5.176;2023-01-29T10:30:01;1.00;99.90
19941;DHT22;10132;50.864;5.176;2023-01-29T10:32:14;1.20;99.90
19941;DHT22;10132;50.864;5.176;2023-01-29T10:34:22;1.40;99.90
19941;DHT22;10132;50.864;5.176;2023-01-29T10:36:32;1.50;99.90
19941;DHT22;10132;50.864;5.176;2023-01-29T10:38:41;1.50;99.90
19941;DHT22;10132;50.864;5.176;2023-01-29T10:40:48;1.60;99.90
19941;DHT22;10132;50.864;5.176;2023-01-29T10:42:57;1.50;99.90
19941;DHT22;10132;50.864;5.176;2023-01-29T10:45:13;1.70;99.90
19941;DHT22;10132;50.864;5.176;2023-01-29T10:47:37;1.80;99.90
19941;DHT22;10132;50.864;5.176;2023-01-29T10:50:09;1.70;99.90
19941;DHT22;10132;50.864;5.176;2023-01-29T10:52:24;1.70;99.90
19941;DHT22;10132;50.864;5.176;2023-01-29T10:54:41;1.60;99.90
19941;DHT22;10132;50.864;5.176;2023-01-29T10:56:55;1.50;99.90
19941;DHT22;10132;50.864;5.176;2023-01-29T10:59:03;1.50;99.90
19941;DHT22;10132;50.864;5.176;2023-01-29T11:01:09;1.60;99.90
19941;DHT22;10132;50.864;5.176;2023-01-29T11:03:14;1.70;99.90
19941;DHT22;10132;50.864;5.176;2023-01-29T11:05:22;1.80;99.90
19941;DHT22;10132;50.864;5.176;2023-01-29T11:07:26;1.90;99.90
19941;DHT22;10132;50.864;5.176;2023-01-29T11:09:34;1.80;99.90
19941;DHT22;10132;50.864;5.176;2023-01-29T11:11:40;1.70;99.90
19941;DHT22;10132;50.864;5.176;2023-01-29T11:13:51;1.80;99.90
19941;DHT22;10132;50.864;5.176;2023-01-29T11:15:55;1.80;99.90
19941;DHT22;10132;50.864;5.176;2023-01-29T11:18:04;1.70;99.90
19941;DHT22;10132;50.864;5.176;2023-01-29T11:20:26;1.80;99.90
19941;DHT22;10132;50.864;5.176;2023-01-29T11:22:29;1.90;99.90
19941;DHT22;10132;50.864;5.176;2023-01-29T11:24:31;1.80;99.90
19941;DHT22;10132;50.864;5.176;2023-01-29T11:26:34;1.80;99.90
19941;DHT22;10132;50.864;5.176;2023-01-29T11:28:40;1.90;99.90
19941;DHT22;10132;50.864;5.176;2023-01-29T11:30:42;1.90;99.90
19941;DHT22;10132;50.864;5.176;2023-01-29T11:32:49;1.90;99.90
19941;DHT22;10132;50.864;5.176;2023-01-29T11:34:58;1.90;99.90
19941;DHT22;10132;50.864;5.176;2023-01-29T11:37:01;1.90;99.90
19941;DHT22;10132;50.864;5.176;2023-01-29T11:39:12;1.80;99.90
19941;DHT22;10132;50.864;5.176;2023-01-29T11:41:15;1.80;99.90
19941;DHT22;10132;50.864;5.176;2023-01-29T11:43:27;1.80;99.90
19941;DHT22;10132;50.864;5.176;2023-01-29T11:45:30;2.00;99.90
19941;DHT22;10132;50.864;5.176;2023-01-29T11:47:34;1.90;99.90
19941;DHT22;10132;50.864;5.176;2023-01-29T11:49:38;2.00;99.90
19941;DHT22;10132;50.864;5.176;2023-01-29T11:51:41;1.90;99.90
19941;DHT22;10132;50.864;5.176;2023-01-29T11:53:44;1.80;99.90
19941;DHT22;10132;50.864;5.176;2023-01-29T11:55:50;1.90;99.90
19941;DHT22;10132;50.864;5.176;2023-01-29T11:57:53;2.20;99.90
19941;DHT22;10132;50.864;5.176;2023-01-29T12:00:02;2.20;99.90
19941;DHT22;10132;50.864;5.176;2023-01-29T12:02:25;2.10;99.90
19941;DHT22;10132;50.864;5.176;2023-01-29T12:04:30;2.10;99.90
19941;DHT22;10132;50.864;5.176;2023-01-29T12:06:36;1.90;99.90
19941;DHT22;10132;50.864;5.176;2023-01-29T12:08:39;2.00;99.90
19941;DHT22;10132;50.864;5.176;2023-01-29T12:10:41;1.90;99.90
19941;DHT22;10132;50.864;5.176;2023-01-29T12:12:44;1.90;99.90
19941;DHT22;10132;50.864;5.176;2023-01-29T12:14:46;2.00;99.90
19941;DHT22;10132;50.864;5.176;2023-01-29T12:16:51;1.80;99.90
19941;DHT22;10132;50.864;5.176;2023-01-29T12:18:57;2.00;99.90
19941;DHT22;10132;50.864;5.176;2023-01-29T12:21:04;2.20;99.90
19941;DHT22;10132;50.864;5.176;2023-01-29T12:23:20;2.30;99.90
19941;DHT22;10132;50.864;5.176;2023-01-29T12:25:36;2.50;99.90
19941;DHT22;10132;50.864;5.176;2023-01-29T12:27:45;2.20;99.90
19941;DHT22;10132;50.864;5.176;2023-01-29T12:29:53;2.10;99.90
19941;DHT22;10132;50.864;5.176;2023-01-29T12:32:04;2.20;99.90
19941;DHT22;10132;50.864;5.176;2023-01-29T12:34:14;2.20;99.90
19941;DHT22;10132;50.864;5.176;2023-01-29T12:36:23;2.10;99.90
19941;DHT22;10132;50.864;5.176;2023-01-29T12:38:28;2.10;99.90
19941;DHT22;10132;50.864;5.176;2023-01-29T12:40:33;2.10;99.90
19941;DHT22;10132;50.864;5.176;2023-01-29T12:42:41;2.10;99.90
19941;DHT22;10132;50.864;5.176;2023-01-29T12:44:46;2.10;99.90
19941;DHT22;10132;50.864;5.176;2023-01-29T12:46:51;2.10;99.90
19941;DHT22;10132;50.864;5.176;2023-01-29T12:48:56;2.30;99.90
19941;DHT22;10132;50.864;5.176;2023-01-29T12:51:05;2.50;99.90
19941;DHT22;10132;50.864;5.176;2023-01-29T12:53:24;2.40;99.90
19941;DHT22;10132;50.864;5.176;2023-01-29T12:55:31;2.40;99.90
19941;DHT22;10132;50.864;5.176;2023-01-29T12:57:39;2.40;99.90
19941;DHT22;10132;50.864;5.176;2023-01-29T12:59:44;2.40;99.90
19941;DHT22;10132;50.864;5.176;2023-01-29T13:01:51;2.40;99.90
19941;DHT22;10132;50.864;5.176;2023-01-29T13:03:58;2.50;99.90
19941;DHT22;10132;50.864;5.176;2023-01-29T13:06:05;2.60;99.90
19941;DHT22;10132;50.864;5.176;2023-01-29T13:08:13;2.70;99.90
19941;DHT22;10132;50.864;5.176;2023-01-29T13:10:18;2.60;99.90
19941;DHT22;10132;50.864;5.176;2023-01-29T13:12:23;2.50;99.90
19941;DHT22;10132;50.864;5.176;2023-01-29T13:14:32;2.60;99.90
19941;DHT22;10132;50.864;5.176;2023-01-29T13:16:39;2.80;99.90
19941;DHT22;10132;50.864;5.176;2023-01-29T13:18:44;2.80;99.90
19941;DHT22;10132;50.864;5.176;2023-01-29T13:20:47;2.80;99.90
19941;DHT22;10132;50.864;5.176;2023-01-29T13:22:51;2.70;99.90
19941;DHT22;10132;50.864;5.176;2023-01-29T13:24:56;2.70;99.90